createdAt,value
2018-08-03T00:00:40.953Z,20.42
2018-08-03T00:03:09.761Z,20.41
2018-08-03T00:05:39.236Z,20.45
2018-08-03T00:08:08.139Z,20.47
2018-08-03T00:10:36.846Z,20.41
2018-08-03T00:13:05.422Z,20.21
2018-08-03T00:15:35.279Z,20.12
2018-08-03T00:18:03.942Z,20.10
2018-08-03T00:20:32.587Z,20.12
2018-08-03T00:23:01.246Z,20.15
2018-08-03T00:25:30.581Z,20.12
2018-08-03T00:27:59.220Z,20.09
2018-08-03T00:30:27.949Z,20.06
2018-08-03T00:32:57.234Z,19.95
2018-08-03T00:35:25.871Z,19.88
2018-08-03T00:37:55.164Z,19.85
2018-08-03T00:40:23.890Z,19.77
2018-08-03T00:42:52.544Z,19.75
2018-08-03T00:45:21.601Z,19.79
2018-08-03T00:47:50.349Z,19.82
2018-08-03T00:50:19.085Z,19.74
2018-08-03T00:52:47.727Z,19.68
2018-08-03T00:55:16.306Z,19.66
2018-08-03T00:57:45.820Z,19.65
2018-08-03T01:00:14.425Z,19.69
2018-08-03T01:02:43.220Z,19.72
2018-08-03T01:05:11.784Z,19.70
2018-08-03T01:07:40.450Z,19.72
2018-08-03T01:10:09.965Z,19.70
2018-08-03T01:12:39.287Z,19.66
2018-08-03T01:15:08.639Z,19.54
2018-08-03T01:17:37.277Z,19.56
2018-08-03T01:20:06.512Z,19.54
2018-08-03T01:22:35.137Z,19.56
2018-08-03T01:25:03.811Z,19.43
2018-08-03T01:27:32.580Z,19.38
2018-08-03T01:30:01.269Z,19.40
2018-08-03T01:32:30.012Z,19.44
2018-08-03T01:34:58.757Z,19.45
2018-08-03T01:37:27.507Z,19.44
2018-08-03T01:39:56.151Z,19.39
2018-08-03T01:42:24.951Z,19.38
2018-08-03T01:44:54.487Z,19.41
2018-08-03T01:47:23.105Z,19.47
2018-08-03T01:49:51.690Z,19.44
2018-08-03T01:52:20.526Z,19.33
2018-08-03T01:54:49.202Z,19.23
2018-08-03T01:57:18.678Z,19.09
2018-08-03T01:59:47.294Z,19.12
2018-08-03T02:02:16.787Z,19.17
2018-08-03T02:04:45.495Z,19.15
2018-08-03T02:07:14.272Z,19.14
2018-08-03T02:09:42.962Z,19.15
2018-08-03T02:12:11.785Z,19.17
2018-08-03T02:14:40.547Z,19.19
2018-08-03T02:17:09.264Z,19.21
2018-08-03T02:19:38.696Z,19.20
2018-08-03T02:22:07.380Z,19.18
2018-08-03T02:24:36.861Z,19.06
2018-08-03T02:27:05.530Z,19.01
2018-08-03T02:29:34.166Z,19.00
2018-08-03T02:32:02.787Z,18.99
2018-08-03T02:34:31.471Z,18.97
2018-08-03T02:37:00.105Z,18.84
2018-08-03T02:39:29.502Z,18.76
2018-08-03T02:41:58.485Z,18.76
2018-08-03T02:44:27.373Z,18.78
2018-08-03T02:46:57.639Z,18.81
2018-08-03T02:49:27.132Z,18.80
2018-08-03T02:51:56.060Z,18.78
2018-08-03T02:54:24.656Z,18.58
2018-08-03T02:56:53.250Z,18.58
2018-08-03T02:59:22.043Z,18.58
2018-08-03T03:01:50.740Z,18.61
2018-08-03T03:04:19.417Z,18.62
2018-08-03T03:06:48.022Z,18.58
2018-08-03T03:09:16.597Z,18.56
2018-08-03T03:11:45.227Z,18.56
2018-08-03T03:14:13.921Z,18.57
2018-08-03T03:16:42.710Z,18.56
2018-08-03T03:19:11.360Z,18.48
2018-08-03T03:21:40.211Z,18.36
2018-08-03T03:24:08.867Z,18.33
2018-08-03T03:26:37.550Z,18.34
2018-08-03T03:29:06.195Z,18.39
2018-08-03T03:31:35.126Z,18.40
2018-08-03T03:34:03.847Z,18.39
2018-08-03T03:36:32.592Z,18.42
2018-08-03T03:39:01.946Z,18.40
2018-08-03T03:41:30.498Z,18.38
2018-08-03T03:43:59.265Z,18.43
2018-08-03T03:46:27.946Z,18.44
2018-08-03T03:48:56.702Z,18.45
2018-08-03T03:51:26.033Z,18.45
2018-08-03T03:53:54.787Z,18.46
2018-08-03T03:56:23.473Z,18.47
2018-08-03T03:58:52.272Z,18.49
2018-08-03T04:01:20.923Z,18.50
2018-08-03T04:03:49.620Z,18.51
2018-08-03T04:06:18.319Z,18.48
2018-08-03T04:08:46.952Z,18.49
2018-08-03T04:11:15.743Z,18.43
2018-08-03T04:13:44.441Z,18.40
2018-08-03T04:16:13.280Z,18.40
2018-08-03T04:18:41.931Z,18.43
2018-08-03T04:21:10.697Z,18.46
2018-08-03T04:23:39.477Z,18.50
2018-08-03T04:26:08.572Z,18.52
2018-08-03T04:28:37.182Z,18.58
2018-08-03T04:31:06.673Z,18.63
2018-08-03T04:33:35.906Z,18.61
2018-08-03T04:36:04.556Z,18.54
2018-08-03T04:38:33.392Z,18.63
2018-08-03T04:41:02.117Z,18.74
2018-08-03T04:43:30.773Z,18.88
2018-08-03T04:45:59.502Z,18.99
2018-08-03T04:48:28.308Z,19.10
2018-08-03T04:50:56.997Z,19.17
2018-08-03T04:53:25.736Z,19.26
2018-08-03T04:55:54.576Z,19.37
2018-08-03T04:58:23.257Z,19.48
2018-08-03T05:00:52.498Z,19.60
2018-08-03T05:03:22.250Z,19.70
2018-08-03T05:05:50.936Z,19.77
2018-08-03T05:08:19.596Z,19.98
2018-08-03T05:10:48.271Z,20.25
2018-08-03T05:13:16.840Z,20.60
2018-08-03T05:15:45.588Z,20.99
2018-08-03T05:18:14.202Z,21.42
2018-08-03T05:20:42.795Z,21.92
2018-08-03T05:23:11.593Z,22.30
2018-08-03T05:25:40.183Z,22.77
2018-08-03T05:28:08.875Z,22.86
2018-08-03T05:30:37.565Z,23.31
2018-08-03T05:33:06.198Z,23.77
2018-08-03T05:35:34.853Z,24.01
2018-08-03T05:38:03.566Z,24.33
2018-08-03T05:40:32.132Z,24.61
2018-08-03T05:43:01.729Z,24.46
2018-08-03T05:45:30.925Z,24.78
2018-08-03T05:47:59.573Z,25.17
2018-08-03T05:50:29.033Z,25.50
2018-08-03T05:52:57.652Z,25.78
2018-08-03T05:55:26.378Z,25.99
2018-08-03T05:57:55.055Z,26.41
2018-08-03T06:00:23.724Z,26.66
2018-08-03T06:02:52.363Z,26.74
2018-08-03T06:05:21.701Z,26.86
2018-08-03T06:07:50.757Z,27.71
2018-08-03T06:10:20.206Z,28.16
2018-08-03T06:12:48.795Z,28.47
2018-08-03T06:15:17.488Z,28.82
2018-08-03T06:17:46.161Z,29.17
2018-08-03T06:20:14.929Z,28.93
2018-08-03T06:22:43.556Z,29.21
2018-08-03T06:25:12.367Z,29.88
2018-08-03T06:27:40.937Z,30.10
2018-08-03T06:30:11.928Z,29.98
2018-08-03T06:32:41.163Z,30.26
2018-08-03T06:35:09.772Z,30.44
2018-08-03T06:37:38.407Z,30.63
2018-08-03T06:40:07.976Z,30.66
2018-08-03T06:42:36.668Z,30.65
2018-08-03T06:45:05.678Z,30.70
2018-08-03T06:47:34.341Z,31.21
2018-08-03T06:50:02.918Z,31.99
2018-08-03T06:52:31.583Z,32.00
2018-08-03T06:55:00.259Z,32.76
2018-08-03T06:57:28.988Z,32.82
2018-08-03T06:59:58.368Z,33.33
2018-08-03T07:02:27.004Z,33.78
2018-08-03T07:04:55.650Z,33.37
2018-08-03T07:07:24.286Z,33.83
2018-08-03T07:09:53.053Z,33.94
2018-08-03T07:12:21.803Z,34.04
2018-08-03T07:14:51.275Z,34.53
2018-08-03T07:17:20.002Z,34.91
2018-08-03T07:19:48.708Z,34.40
2018-08-03T07:22:17.427Z,34.54
2018-08-03T07:24:46.035Z,34.72
2018-08-03T07:27:15.274Z,35.13
2018-08-03T07:29:44.044Z,34.99
2018-08-03T07:32:12.722Z,35.07
2018-08-03T07:34:41.337Z,35.01
2018-08-03T07:37:10.053Z,35.26
2018-08-03T07:39:38.841Z,36.28
2018-08-03T07:42:07.532Z,36.24
2018-08-03T07:44:36.216Z,37.13
2018-08-03T07:47:04.977Z,37.08
2018-08-03T07:49:34.573Z,37.43
2018-08-03T07:52:03.432Z,36.87
2018-08-03T07:54:32.877Z,37.28
2018-08-03T07:57:01.542Z,37.31
2018-08-03T07:59:30.187Z,37.46
2018-08-03T08:01:58.940Z,37.56
2018-08-03T08:04:28.192Z,38.21
2018-08-03T08:06:56.843Z,38.66
2018-08-03T08:09:25.689Z,38.58
2018-08-03T08:11:54.296Z,39.33
2018-08-03T08:14:23.762Z,40.68
2018-08-03T08:16:52.414Z,40.49
2018-08-03T08:19:21.037Z,40.38
2018-08-03T08:21:49.765Z,40.11
2018-08-03T08:24:18.423Z,40.58
2018-08-03T08:26:47.112Z,40.51
2018-08-03T08:29:15.897Z,40.93
2018-08-03T08:31:45.218Z,41.28
2018-08-03T08:34:14.008Z,41.44
2018-08-03T08:36:43.589Z,41.50
2018-08-03T08:39:13.683Z,41.92
2018-08-03T08:41:43.471Z,41.47
2018-08-03T08:44:13.204Z,42.05
2018-08-03T08:46:42.409Z,42.05
2018-08-03T08:49:11.732Z,42.64
2018-08-03T08:51:40.308Z,42.96
2018-08-03T08:54:09.085Z,42.85
2018-08-03T08:56:37.884Z,42.82
2018-08-03T08:59:06.531Z,43.83
2018-08-03T09:01:35.398Z,44.24
2018-08-03T09:04:04.068Z,44.65
2018-08-03T09:06:32.680Z,45.16
2018-08-03T09:09:01.483Z,45.30
2018-08-03T09:11:30.219Z,44.63
2018-08-03T09:13:58.919Z,45.16
2018-08-03T09:16:27.644Z,45.44
2018-08-03T09:18:56.385Z,45.74
2018-08-03T09:21:25.121Z,46.18
2018-08-03T09:23:53.816Z,46.16
2018-08-03T09:26:22.480Z,45.80
2018-08-03T09:28:52.609Z,46.66
2018-08-03T09:31:21.653Z,46.29
2018-08-03T09:33:51.079Z,46.08
2018-08-03T09:36:19.904Z,46.41
2018-08-03T09:38:49.265Z,45.46
2018-08-03T09:41:17.990Z,45.73
2018-08-03T09:43:46.715Z,45.45
2018-08-03T09:46:15.386Z,45.53
2018-08-03T09:48:44.179Z,45.56
2018-08-03T09:51:13.350Z,46.00
2018-08-03T09:53:41.961Z,45.69
2018-08-03T09:56:10.543Z,46.13
2018-08-03T09:58:40.063Z,45.80
2018-08-03T10:01:11.666Z,45.51
2018-08-03T10:03:41.340Z,45.24
2018-08-03T10:06:10.719Z,45.10
2018-08-03T10:08:39.396Z,45.92
2018-08-03T10:11:08.613Z,45.87
2018-08-03T10:13:37.404Z,45.82
2018-08-03T10:16:06.884Z,46.75
2018-08-03T10:18:36.500Z,47.14
2018-08-03T10:21:05.190Z,46.35
2018-08-03T10:23:33.898Z,46.91
2018-08-03T10:26:02.524Z,47.52
2018-08-03T10:28:31.244Z,47.55
2018-08-03T10:30:59.954Z,47.44
2018-08-03T10:33:28.633Z,47.36
2018-08-03T10:35:57.428Z,47.70
2018-08-03T10:38:26.778Z,49.24
2018-08-03T10:40:55.479Z,49.78
2018-08-03T10:43:25.003Z,50.28
2018-08-03T10:45:54.514Z,48.94
2018-08-03T10:48:23.134Z,48.37
2018-08-03T10:50:51.829Z,48.70
2018-08-03T10:53:20.585Z,49.33
2018-08-03T10:55:49.292Z,49.19
2018-08-03T10:58:17.914Z,49.55
2018-08-03T11:00:46.783Z,49.68
2018-08-03T11:03:16.180Z,49.64
2018-08-03T11:05:44.860Z,49.43
2018-08-03T11:08:13.500Z,48.76
2018-08-03T11:10:42.215Z,48.18
2018-08-03T11:13:10.873Z,48.24
2018-08-03T11:15:40.230Z,48.47
2018-08-03T11:18:08.915Z,48.99
2018-08-03T11:20:37.613Z,49.24
2018-08-03T11:23:06.320Z,49.67
2018-08-03T11:25:35.041Z,49.93
2018-08-03T11:28:04.304Z,49.91
2018-08-03T11:30:42.199Z,50.18
2018-08-03T11:33:10.899Z,49.91
2018-08-03T11:35:39.723Z,48.85
2018-08-03T11:38:08.354Z,48.52
2018-08-03T11:40:37.184Z,48.63
2018-08-03T11:43:05.751Z,48.92
2018-08-03T11:45:34.618Z,49.80
2018-08-03T11:48:03.355Z,50.02
2018-08-03T11:50:32.127Z,49.18
2018-08-03T11:53:00.977Z,48.95
2018-08-03T11:55:29.945Z,50.07
2018-08-03T11:58:00.101Z,50.88
2018-08-03T12:00:29.014Z,50.93
2018-08-03T12:02:58.184Z,52.14
2018-08-03T12:05:26.871Z,52.01
2018-08-03T12:07:55.610Z,51.86
2018-08-03T12:10:24.195Z,52.46
2018-08-03T12:12:52.816Z,51.86
2018-08-03T12:15:21.478Z,51.59
2018-08-03T12:17:50.335Z,51.37
2018-08-03T12:20:18.958Z,51.22
2018-08-03T12:22:48.236Z,50.60
2018-08-03T12:25:16.801Z,50.23
2018-08-03T12:27:45.556Z,49.57
2018-08-03T12:30:14.780Z,49.40
2018-08-03T12:32:43.483Z,49.50
2018-08-03T12:35:12.159Z,49.95
2018-08-03T12:37:40.749Z,49.41
2018-08-03T12:40:09.460Z,49.33
2018-08-03T12:42:39.067Z,48.97
2018-08-03T12:45:07.890Z,48.97
2018-08-03T12:47:36.514Z,48.98
2018-08-03T12:50:05.184Z,49.46
2018-08-03T12:52:33.908Z,49.50
2018-08-03T12:55:02.580Z,49.72
2018-08-03T12:57:31.410Z,49.37
2018-08-03T13:00:00.184Z,49.15
2018-08-03T13:02:28.841Z,47.92
2018-08-03T13:04:57.450Z,48.39
2018-08-03T13:07:26.223Z,48.25
2018-08-03T13:09:55.786Z,49.41
2018-08-03T13:12:24.440Z,49.72
2018-08-03T13:14:53.108Z,48.95
2018-08-03T13:17:21.818Z,46.51
2018-08-03T13:19:50.430Z,44.56
2018-08-03T13:22:22.660Z,44.54
2018-08-03T13:24:51.856Z,44.91
2018-08-03T13:27:21.187Z,45.37
2018-08-03T13:29:49.935Z,44.87
2018-08-03T13:32:19.150Z,45.07
2018-08-03T13:34:48.802Z,43.78
2018-08-03T13:37:17.730Z,42.84
2018-08-03T13:39:46.352Z,43.14
2018-08-03T13:42:15.046Z,44.00
2018-08-03T13:44:43.802Z,43.62
2018-08-03T13:47:12.521Z,42.70
2018-08-03T13:49:41.195Z,41.70
2018-08-03T13:52:09.997Z,41.37
2018-08-03T13:54:38.636Z,40.87
2018-08-03T13:57:07.440Z,40.48
2018-08-03T13:59:36.730Z,40.43
2018-08-03T14:02:27.375Z,40.42
2018-08-03T14:04:56.600Z,40.45
2018-08-03T14:07:27.130Z,40.20
2018-08-03T14:09:56.590Z,39.54
2018-08-03T14:12:25.246Z,39.43
2018-08-03T14:14:54.139Z,39.44
2018-08-03T14:17:22.977Z,39.69
2018-08-03T14:19:51.639Z,39.98
2018-08-03T14:22:20.452Z,39.82
2018-08-03T14:24:50.094Z,39.43
2018-08-03T14:27:18.912Z,38.82
2018-08-03T14:29:47.644Z,38.50
2018-08-03T14:32:16.380Z,38.37
2018-08-03T14:34:45.164Z,38.42
2018-08-03T14:37:13.885Z,37.89
2018-08-03T14:39:43.336Z,38.20
2018-08-03T14:42:12.066Z,38.28
2018-08-03T14:44:41.488Z,38.28
2018-08-03T14:47:10.347Z,37.97
2018-08-03T14:49:39.016Z,37.63
2018-08-03T14:52:07.704Z,37.35
2018-08-03T14:54:36.446Z,37.31
2018-08-03T14:57:05.702Z,37.15
2018-08-03T14:59:35.279Z,37.01
2018-08-03T15:02:04.199Z,36.98
2018-08-03T15:04:33.634Z,36.81
2018-08-03T15:07:02.319Z,36.58
2018-08-03T15:09:30.962Z,36.37
2018-08-03T15:11:59.640Z,36.11
2018-08-03T15:14:28.406Z,36.00
2018-08-03T15:16:57.110Z,35.93
2018-08-03T15:19:25.799Z,35.82
2018-08-03T15:21:54.552Z,35.82
2018-08-03T15:24:23.195Z,35.86
2018-08-03T15:26:51.922Z,35.84
2018-08-03T15:29:20.664Z,35.78
2018-08-03T15:31:49.367Z,35.75
2018-08-03T15:34:18.087Z,35.69
2018-08-03T15:36:46.898Z,35.56
2018-08-03T15:39:15.578Z,35.45
2018-08-03T15:41:44.380Z,35.46
2018-08-03T15:44:13.126Z,35.41
2018-08-03T15:46:41.945Z,35.23
2018-08-03T15:49:10.616Z,35.15
2018-08-03T15:51:39.982Z,35.11
2018-08-03T15:54:08.747Z,35.05
2018-08-03T15:56:37.429Z,34.94
2018-08-03T15:59:06.199Z,34.98
2018-08-03T16:01:35.637Z,35.03
2018-08-03T16:04:04.326Z,35.07
2018-08-03T16:06:33.147Z,35.11
2018-08-03T16:09:02.563Z,35.06
2018-08-03T16:11:31.237Z,34.94
2018-08-03T16:13:59.986Z,34.80
2018-08-03T16:16:28.941Z,34.70
2018-08-03T16:18:57.598Z,34.60
2018-08-03T16:21:26.515Z,34.45
2018-08-03T16:23:55.220Z,34.42
2018-08-03T16:26:24.125Z,34.38
2018-08-03T16:28:52.922Z,34.40
2018-08-03T16:31:21.626Z,34.40
2018-08-03T16:33:50.330Z,34.37
2018-08-03T16:36:18.996Z,34.31
2018-08-03T16:38:47.965Z,34.17
2018-08-03T16:41:16.663Z,34.11
2018-08-03T16:43:45.456Z,34.01
2018-08-03T16:46:14.097Z,33.92
2018-08-03T16:48:42.858Z,33.79
2018-08-03T16:51:11.707Z,33.76
2018-08-03T16:53:40.545Z,33.69
2018-08-03T16:56:09.336Z,33.63
2018-08-03T16:58:38.135Z,33.56
2018-08-03T17:01:06.924Z,33.47
2018-08-03T17:03:35.618Z,33.42
2018-08-03T17:06:04.883Z,33.38
2018-08-03T17:08:33.617Z,33.33
2018-08-03T17:11:02.285Z,33.29
2018-08-03T17:13:31.053Z,33.22
2018-08-03T17:15:59.776Z,33.15
2018-08-03T17:18:28.551Z,33.06
2018-08-03T17:20:57.856Z,32.97
2018-08-03T17:23:26.486Z,32.94
2018-08-03T17:25:55.683Z,32.87
2018-08-03T17:28:24.827Z,32.82
2018-08-03T17:30:54.105Z,32.74
2018-08-03T17:33:23.462Z,32.62
2018-08-03T17:35:52.126Z,32.57
2018-08-03T17:38:21.432Z,32.48
2018-08-03T17:40:50.076Z,32.42
2018-08-03T17:43:18.800Z,32.36
2018-08-03T17:45:47.526Z,32.25
2018-08-03T17:48:16.277Z,32.15
2018-08-03T17:50:46.406Z,32.04
2018-08-03T17:53:15.036Z,31.91
2018-08-03T17:55:43.763Z,31.79
2018-08-03T17:58:12.520Z,31.61
2018-08-03T18:00:41.983Z,31.35
2018-08-03T18:03:10.663Z,31.28
2018-08-03T18:05:39.288Z,31.19
2018-08-03T18:08:08.081Z,30.95
2018-08-03T18:10:36.773Z,30.45
2018-08-03T18:13:05.923Z,30.17
2018-08-03T18:15:34.768Z,30.15
2018-08-03T18:18:03.438Z,30.19
2018-08-03T18:20:32.746Z,30.22
2018-08-03T18:23:01.522Z,30.18
2018-08-03T18:25:30.177Z,30.06
2018-08-03T18:27:58.895Z,30.01
2018-08-03T18:30:27.567Z,29.86
2018-08-03T18:32:56.338Z,29.66
2018-08-03T18:35:25.081Z,29.51
2018-08-03T18:37:53.836Z,29.19
2018-08-03T18:40:22.594Z,29.06
2018-08-03T18:42:52.014Z,29.04
2018-08-03T18:45:20.770Z,28.90
2018-08-03T18:47:49.414Z,28.73
2018-08-03T18:50:18.066Z,28.41
2018-08-03T18:52:46.786Z,28.27
2018-08-03T18:55:15.477Z,28.23
2018-08-03T18:57:44.136Z,28.16
2018-08-03T19:00:12.944Z,28.02
2018-08-03T19:02:41.545Z,27.86
2018-08-03T19:05:10.381Z,27.74
2018-08-03T19:07:39.074Z,27.67
2018-08-03T19:10:07.867Z,27.54
2018-08-03T19:12:36.638Z,27.37
2018-08-03T19:15:06.013Z,27.16
2018-08-03T19:17:34.937Z,27.05
2018-08-03T19:20:04.289Z,27.01
2018-08-03T19:22:33.349Z,27.00
2018-08-03T19:25:02.881Z,26.96
2018-08-03T19:27:31.652Z,26.54
2018-08-03T19:30:00.391Z,26.36
2018-08-03T19:32:29.294Z,26.43
2018-08-03T19:34:58.053Z,26.40
2018-08-03T19:37:26.861Z,26.10
2018-08-03T19:39:55.757Z,25.93
2018-08-03T19:42:24.499Z,25.99
2018-08-03T19:44:53.922Z,26.01
2018-08-03T19:47:22.661Z,26.01
2018-08-03T19:49:51.529Z,25.95
2018-08-03T19:52:20.247Z,25.62
2018-08-03T19:54:49.548Z,25.48
2018-08-03T19:57:18.261Z,25.55
2018-08-03T19:59:46.910Z,25.48
2018-08-03T20:02:17.406Z,25.44
2018-08-03T20:04:46.257Z,25.22
2018-08-03T20:07:14.991Z,24.99
2018-08-03T20:09:43.738Z,25.02
2018-08-03T20:12:13.120Z,25.07
2018-08-03T20:14:42.080Z,24.97
2018-08-03T20:17:11.692Z,24.98
2018-08-03T20:19:40.372Z,24.97
2018-08-03T20:22:17.350Z,24.92
2018-08-03T20:24:47.188Z,24.76
2018-08-03T20:27:16.607Z,24.75
2018-08-03T20:29:45.662Z,24.76
2018-08-03T20:32:14.603Z,24.62
2018-08-03T20:34:43.919Z,24.59
2018-08-03T20:37:12.647Z,24.63
2018-08-03T20:39:42.189Z,24.41
2018-08-03T20:42:10.999Z,24.07
2018-08-03T20:44:39.815Z,24.06
2018-08-03T20:47:08.774Z,24.08
2018-08-03T20:49:38.295Z,24.05
2018-08-03T20:52:07.169Z,24.05
2018-08-03T20:54:35.716Z,24.04
2018-08-03T20:57:04.429Z,24.03
2018-08-03T20:59:33.138Z,24.00
2018-08-03T21:02:02.511Z,23.90
2018-08-03T21:04:32.230Z,23.82
2018-08-03T21:07:00.912Z,23.72
2018-08-03T21:09:29.609Z,23.54
2018-08-03T21:11:59.103Z,23.60
2018-08-03T21:14:27.792Z,23.63
2018-08-03T21:16:56.494Z,23.58
2018-08-03T21:19:25.849Z,23.57
2018-08-03T21:21:54.509Z,23.56
2018-08-03T21:24:23.276Z,23.57
2018-08-03T21:26:52.092Z,23.35
2018-08-03T21:29:20.812Z,23.17
2018-08-03T21:31:51.177Z,23.21
2018-08-03T21:34:20.059Z,23.24
2018-08-03T21:36:48.694Z,23.22
2018-08-03T21:39:17.483Z,23.23
2018-08-03T21:41:46.212Z,23.01
2018-08-03T21:44:15.277Z,22.82
2018-08-03T21:46:44.068Z,22.83
2018-08-03T21:49:12.693Z,22.85
2018-08-03T21:51:42.085Z,22.89
2018-08-03T21:54:10.788Z,22.90
2018-08-03T21:56:39.438Z,22.89
2018-08-03T21:59:08.152Z,22.80
2018-08-03T22:01:36.809Z,22.79
2018-08-03T22:04:05.450Z,22.80
2018-08-03T22:06:34.226Z,22.73
2018-08-03T22:09:03.158Z,22.42
2018-08-03T22:11:31.832Z,22.38
2018-08-03T22:14:00.549Z,22.42
2018-08-03T22:16:29.249Z,22.48
2018-08-03T22:18:58.702Z,22.25
2018-08-03T22:21:27.349Z,22.09
2018-08-03T22:23:55.965Z,22.15
2018-08-03T22:26:25.358Z,22.21
2018-08-03T22:28:54.980Z,22.14
2018-08-03T22:31:24.479Z,22.16
2018-08-03T22:33:53.836Z,22.18
2018-08-03T22:36:23.297Z,22.14
2018-08-03T22:38:52.153Z,22.02
2018-08-03T22:41:20.795Z,21.82
2018-08-03T22:43:49.702Z,21.67
2018-08-03T22:46:18.289Z,21.74
2018-08-03T22:48:47.097Z,21.83
2018-08-03T22:51:15.777Z,21.87
2018-08-03T22:53:44.625Z,21.69
2018-08-03T22:56:13.259Z,21.63
2018-08-03T22:58:41.993Z,21.65
2018-08-03T23:01:10.882Z,21.74
2018-08-03T23:03:39.530Z,21.78
2018-08-03T23:06:09.217Z,21.81
2018-08-03T23:08:37.997Z,21.79
2018-08-03T23:11:07.447Z,21.66
2018-08-03T23:13:36.137Z,21.59
2018-08-03T23:16:04.913Z,21.69
2018-08-03T23:18:34.142Z,21.70
2018-08-03T23:21:02.867Z,21.75
2018-08-03T23:23:31.509Z,21.76
2018-08-03T23:26:00.189Z,21.58
2018-08-03T23:28:28.798Z,21.29
2018-08-03T23:30:57.466Z,21.23
2018-08-03T23:33:26.151Z,21.27
2018-08-03T23:35:54.983Z,21.31
2018-08-03T23:38:23.653Z,21.31
2018-08-03T23:40:52.402Z,21.35
2018-08-03T23:43:21.165Z,21.33
2018-08-03T23:45:50.613Z,21.15
2018-08-03T23:48:19.228Z,20.97
2018-08-03T23:50:47.876Z,20.95
2018-08-03T23:53:16.483Z,21.02
2018-08-03T23:55:45.257Z,21.07
2018-08-03T23:58:13.902Z,21.06
